createdAt,value
2023-09-08T00:00:02.143Z,44.12
2023-09-08T00:02:51.918Z,44.04
2023-09-08T00:05:39.313Z,44.17
2023-09-08T00:08:26.599Z,44.34
2023-09-08T00:11:13.711Z,44.19
2023-09-08T00:14:00.943Z,43.97
2023-09-08T00:16:48.291Z,44.24
2023-09-08T00:19:35.988Z,44.08
2023-09-08T00:22:23.233Z,44.34
2023-09-08T00:25:10.439Z,44.04
2023-09-08T00:27:57.632Z,43.66
2023-09-08T00:30:44.738Z,44.22
2023-09-08T00:33:32.346Z,43.87
2023-09-08T00:36:20.241Z,43.68
2023-09-08T00:39:07.440Z,44.24
2023-09-08T00:41:55.136Z,44.09
2023-09-08T00:44:42.384Z,43.74
2023-09-08T00:47:29.984Z,43.83
2023-09-08T00:50:17.272Z,43.97
2023-09-08T00:53:06.639Z,43.97
2023-09-08T00:55:55.180Z,44.19
2023-09-08T00:58:42.463Z,44.14
2023-09-08T01:01:30.369Z,44.13
2023-09-08T01:04:17.544Z,43.81
2023-09-08T01:07:05.450Z,43.95
2023-09-08T01:09:53.372Z,44.10
2023-09-08T01:12:41.358Z,43.76
2023-09-08T01:15:28.520Z,43.97
2023-09-08T01:18:15.750Z,44.10
2023-09-08T01:21:52.375Z,43.81
2023-09-08T01:25:13.522Z,43.39
2023-09-08T01:28:03.370Z,43.82
2023-09-08T01:30:52.734Z,44.04
2023-09-08T01:33:41.551Z,43.81
2023-09-08T01:36:28.666Z,43.98
2023-09-08T01:39:15.814Z,43.55
2023-09-08T01:42:03.116Z,43.46
2023-09-08T01:44:50.288Z,43.69
2023-09-08T01:47:38.704Z,43.65
2023-09-08T01:50:26.341Z,44.03
2023-09-08T01:53:13.509Z,43.56
2023-09-08T01:56:00.799Z,43.70
2023-09-08T01:58:48.015Z,43.59
2023-09-08T02:01:35.194Z,43.90
2023-09-08T02:04:22.567Z,43.83
2023-09-08T02:07:09.867Z,43.50
2023-09-08T02:09:57.015Z,43.47
2023-09-08T02:12:44.157Z,43.92
2023-09-08T02:15:31.323Z,43.75
2023-09-08T02:18:18.564Z,43.59
2023-09-08T02:21:05.739Z,43.88
2023-09-08T02:23:52.944Z,43.84
2023-09-08T02:26:41.995Z,43.51
2023-09-08T02:29:29.573Z,43.39
2023-09-08T02:32:16.740Z,43.52
2023-09-08T02:35:04.570Z,43.91
2023-09-08T02:37:51.896Z,43.96
2023-09-08T02:40:40.020Z,43.40
2023-09-08T02:43:28.408Z,43.92
2023-09-08T02:46:16.632Z,43.54
2023-09-08T02:49:04.744Z,43.37
2023-09-08T02:51:52.020Z,43.71
2023-09-08T02:54:39.309Z,43.57
2023-09-08T02:57:26.642Z,43.61
2023-09-08T03:00:14.386Z,43.73
2023-09-08T03:03:01.638Z,43.64
2023-09-08T03:05:49.132Z,43.35
2023-09-08T03:08:38.164Z,43.30
2023-09-08T03:11:25.559Z,43.58
2023-09-08T03:14:12.726Z,43.23
2023-09-08T03:17:00.141Z,43.50
2023-09-08T03:19:47.782Z,43.09
2023-09-08T03:22:34.917Z,43.39
2023-09-08T03:25:22.579Z,43.14
2023-09-08T03:28:09.766Z,43.49
2023-09-08T03:30:56.976Z,43.52
2023-09-08T03:33:44.433Z,43.36
2023-09-08T03:36:36.821Z,43.50
2023-09-08T03:39:24.376Z,43.13
2023-09-08T03:42:11.504Z,43.56
2023-09-08T03:44:58.709Z,43.62
2023-09-08T03:47:46.014Z,43.13
2023-09-08T03:50:33.781Z,43.58
2023-09-08T03:53:21.039Z,43.16
2023-09-08T03:56:08.252Z,43.54
2023-09-08T03:58:55.727Z,43.50
2023-09-08T04:01:43.007Z,43.55
2023-09-08T04:04:30.170Z,43.37
2023-09-08T04:07:17.402Z,43.15
2023-09-08T04:10:05.314Z,43.44
2023-09-08T04:12:52.618Z,42.99
2023-09-08T04:15:40.585Z,43.06
2023-09-08T04:18:28.361Z,42.93
2023-09-08T04:21:15.611Z,43.47
2023-09-08T04:24:03.037Z,43.52
2023-09-08T04:26:50.297Z,43.37
2023-09-08T04:29:37.691Z,43.30
2023-09-08T04:32:24.954Z,43.28
2023-09-08T04:35:12.882Z,42.97
2023-09-08T04:38:01.429Z,42.82
2023-09-08T04:40:52.016Z,42.63
2023-09-08T04:43:39.340Z,42.66
2023-09-08T04:46:26.619Z,42.25
2023-09-08T04:49:14.110Z,42.71
2023-09-08T04:52:01.407Z,42.32
2023-09-08T04:54:50.199Z,42.23
2023-09-08T04:57:37.381Z,42.54
2023-09-08T05:00:25.054Z,42.69
2023-09-08T05:03:12.828Z,42.75
2023-09-08T05:06:00.327Z,42.39
2023-09-08T05:08:49.014Z,42.31
2023-09-08T05:11:36.994Z,42.29
2023-09-08T05:14:26.005Z,42.70
2023-09-08T05:17:13.708Z,42.59
2023-09-08T05:20:00.985Z,42.32
2023-09-08T05:22:49.237Z,42.21
2023-09-08T05:25:36.365Z,42.71
2023-09-08T05:28:23.976Z,42.34
2023-09-08T05:31:11.465Z,42.80
2023-09-08T05:33:58.923Z,42.76
2023-09-08T05:36:46.820Z,42.77
2023-09-08T05:39:34.301Z,42.45
2023-09-08T05:42:21.459Z,42.36
2023-09-08T05:45:09.166Z,42.83
2023-09-08T05:47:56.491Z,42.74
2023-09-08T05:50:44.186Z,42.43
2023-09-08T05:53:32.145Z,42.66
2023-09-08T05:56:21.154Z,42.47
2023-09-08T05:59:08.487Z,42.52
2023-09-08T06:01:55.772Z,42.42
2023-09-08T06:04:43.127Z,42.79
2023-09-08T06:07:30.826Z,42.66
2023-09-08T06:10:18.144Z,42.76
2023-09-08T06:13:06.463Z,42.80
2023-09-08T06:15:53.835Z,42.87
2023-09-08T06:18:41.618Z,42.80
2023-09-08T06:21:33.621Z,42.42
2023-09-08T06:24:20.821Z,42.97
2023-09-08T06:27:08.865Z,42.54
2023-09-08T06:29:57.824Z,43.05
2023-09-08T06:32:45.621Z,42.80
2023-09-08T06:35:35.021Z,42.83
2023-09-08T06:38:22.330Z,42.57
2023-09-08T06:41:12.642Z,42.95
2023-09-08T06:44:00.989Z,42.98
2023-09-08T06:46:49.559Z,42.73
2023-09-08T06:49:36.863Z,42.69
2023-09-08T06:52:24.316Z,42.63
2023-09-08T06:55:11.514Z,42.83
2023-09-08T06:57:59.017Z,42.75
2023-09-08T07:00:46.396Z,42.80
2023-09-08T07:03:38.500Z,42.77
2023-09-08T07:06:28.148Z,42.64
2023-09-08T07:09:17.215Z,42.92
2023-09-08T07:12:07.972Z,43.13
2023-09-08T07:14:55.400Z,43.00
2023-09-08T07:17:43.233Z,43.29
2023-09-08T07:20:31.271Z,43.25
2023-09-08T07:23:21.670Z,43.38
2023-09-08T07:26:08.893Z,43.42
2023-09-08T07:28:56.318Z,43.69
2023-09-08T07:31:43.991Z,43.31
2023-09-08T07:34:31.312Z,43.61
2023-09-08T07:37:18.656Z,43.46
2023-09-08T07:40:06.980Z,43.42
2023-09-08T07:42:54.445Z,43.64
2023-09-08T07:45:42.226Z,43.40
2023-09-08T07:48:29.807Z,43.54
2023-09-08T07:51:17.078Z,43.43
2023-09-08T07:54:05.506Z,43.74
2023-09-08T07:56:52.864Z,43.81
2023-09-08T07:59:40.086Z,43.74
2023-09-08T08:02:27.297Z,44.01
2023-09-08T08:05:14.616Z,43.90
2023-09-08T08:08:01.935Z,43.74
2023-09-08T08:10:49.130Z,44.00
2023-09-08T08:13:36.225Z,44.15
2023-09-08T08:16:24.202Z,44.50
2023-09-08T08:19:11.314Z,44.52
2023-09-08T08:21:59.191Z,44.28
2023-09-08T08:24:46.867Z,44.88
2023-09-08T08:27:34.089Z,44.81
2023-09-08T08:30:21.443Z,44.48
2023-09-08T08:33:08.759Z,44.82
2023-09-08T08:35:56.076Z,44.37
2023-09-08T08:38:43.196Z,44.35
2023-09-08T08:41:30.646Z,44.48
2023-09-08T08:44:20.039Z,44.71
2023-09-08T08:47:12.289Z,44.60
2023-09-08T08:50:01.810Z,44.80
2023-09-08T08:52:49.296Z,44.47
2023-09-08T08:55:37.027Z,44.35
2023-09-08T08:58:27.735Z,44.42
2023-09-08T09:01:20.154Z,44.41
2023-09-08T09:04:08.092Z,44.77
2023-09-08T09:06:55.594Z,44.45
2023-09-08T09:09:42.795Z,44.79
2023-09-08T09:12:30.741Z,44.83
2023-09-08T09:15:33.722Z,44.87
2023-09-08T09:18:21.232Z,44.58
2023-09-08T09:21:08.472Z,44.98
2023-09-08T09:23:57.040Z,44.77
2023-09-08T09:26:44.919Z,45.01
2023-09-08T09:29:32.481Z,45.18
2023-09-08T09:32:26.669Z,45.14
2023-09-08T09:35:13.807Z,45.20
2023-09-08T09:38:00.964Z,45.04
2023-09-08T09:40:49.996Z,45.35
2023-09-08T09:43:38.096Z,45.09
2023-09-08T09:46:28.402Z,45.37
2023-09-08T09:49:20.582Z,44.48
2023-09-08T09:52:07.801Z,45.00
2023-09-08T09:54:57.778Z,45.08
2023-09-08T09:57:45.213Z,45.76
2023-09-08T10:00:35.750Z,45.55
2023-09-08T10:03:25.705Z,45.64
2023-09-08T10:06:15.724Z,45.52
2023-09-08T10:09:10.031Z,45.80
2023-09-08T10:12:04.300Z,45.74
2023-09-08T10:14:55.779Z,45.60
2023-09-08T10:17:47.219Z,46.10
2023-09-08T10:20:35.957Z,45.59
2023-09-08T10:23:49.059Z,45.89
2023-09-08T10:26:40.228Z,45.63
2023-09-08T10:29:28.566Z,45.96
2023-09-08T10:32:17.984Z,45.97
2023-09-08T10:35:07.488Z,45.86
2023-09-08T10:38:25.241Z,45.75
2023-09-08T10:41:18.418Z,46.14
2023-09-08T10:44:09.862Z,46.33
2023-09-08T10:46:59.088Z,46.10
2023-09-08T10:49:46.682Z,46.36
2023-09-08T10:52:36.301Z,46.17
2023-09-08T10:55:38.567Z,46.43
2023-09-08T10:58:34.189Z,46.06
2023-09-08T11:01:28.849Z,46.20
2023-09-08T11:04:20.305Z,46.38
2023-09-08T11:07:07.647Z,46.75
2023-09-08T11:09:55.270Z,46.65
2023-09-08T11:12:42.507Z,46.42
2023-09-08T11:15:29.674Z,46.97
2023-09-08T11:18:16.944Z,46.97
2023-09-08T11:21:09.259Z,46.84
2023-09-08T11:23:56.952Z,46.51
2023-09-08T11:26:47.577Z,47.06
2023-09-08T11:29:34.755Z,46.66
2023-09-08T11:32:22.571Z,47.09
2023-09-08T11:35:11.591Z,46.88
2023-09-08T11:38:02.201Z,46.71
2023-09-08T11:40:50.343Z,46.81
2023-09-08T11:43:38.194Z,47.29
2023-09-08T11:46:27.303Z,47.17
2023-09-08T11:49:14.595Z,46.78
2023-09-08T11:52:01.832Z,47.32
2023-09-08T11:55:04.165Z,46.94
2023-09-08T11:57:58.279Z,46.83
2023-09-08T12:00:49.024Z,47.02
2023-09-08T12:03:36.318Z,46.85
2023-09-08T12:06:30.092Z,46.83
2023-09-08T12:09:17.640Z,47.28
2023-09-08T12:12:11.678Z,47.01
2023-09-08T12:14:58.842Z,46.90
2023-09-08T12:17:51.258Z,47.35
2023-09-08T12:20:40.629Z,46.87
2023-09-08T12:23:27.737Z,47.22
2023-09-08T12:26:14.960Z,47.20
2023-09-08T12:29:13.130Z,47.00
2023-09-08T12:32:00.333Z,46.96
2023-09-08T12:34:47.891Z,47.31
2023-09-08T12:37:35.241Z,46.99
2023-09-08T12:40:22.773Z,47.29
2023-09-08T12:43:14.779Z,47.24
2023-09-08T12:46:14.459Z,46.94
2023-09-08T12:49:01.596Z,47.44
2023-09-08T12:51:48.970Z,47.01
2023-09-08T12:54:36.741Z,46.90
2023-09-08T12:57:23.910Z,47.35
2023-09-08T13:00:11.795Z,47.02
2023-09-08T13:02:59.473Z,47.52
2023-09-08T13:05:46.823Z,47.58
2023-09-08T13:08:34.398Z,47.12
2023-09-08T13:11:22.694Z,47.13
2023-09-08T13:14:10.136Z,47.07
2023-09-08T13:16:57.261Z,47.56
2023-09-08T13:19:46.333Z,47.32
2023-09-08T13:22:33.728Z,47.11
2023-09-08T13:25:21.004Z,47.16
2023-09-08T13:28:08.299Z,47.47
2023-09-08T13:30:55.604Z,47.51
2023-09-08T13:33:42.755Z,47.08
2023-09-08T13:36:29.903Z,47.00
2023-09-08T13:39:17.329Z,47.31
2023-09-08T13:42:04.770Z,47.21
2023-09-08T13:44:52.127Z,47.06
2023-09-08T13:47:40.232Z,47.11
2023-09-08T13:50:28.121Z,47.05
2023-09-08T13:53:15.633Z,47.24
2023-09-08T13:56:08.991Z,47.08
2023-09-08T13:58:57.685Z,47.58
2023-09-08T14:04:34.512Z,47.44
2023-09-08T14:07:27.647Z,47.05
2023-09-08T14:10:29.301Z,47.52
2023-09-08T14:13:25.189Z,46.97
2023-09-08T14:16:13.920Z,47.12
2023-09-08T14:19:01.075Z,47.25
2023-09-08T14:21:48.337Z,47.51
2023-09-08T14:24:35.474Z,47.50
2023-09-08T14:27:22.630Z,47.53
2023-09-08T14:30:10.411Z,47.11
2023-09-08T14:32:57.780Z,47.04
2023-09-08T14:35:47.171Z,47.14
2023-09-08T14:38:34.360Z,47.22
2023-09-08T14:41:21.513Z,47.45
2023-09-08T14:44:08.738Z,47.49
2023-09-08T14:46:55.874Z,46.95
2023-09-08T14:49:43.785Z,47.47
2023-09-08T14:52:30.905Z,47.48
2023-09-08T14:55:18.166Z,47.13
2023-09-08T14:58:05.373Z,47.63
2023-09-08T15:00:53.057Z,47.09
2023-09-08T15:03:40.811Z,47.23
2023-09-08T15:06:28.802Z,47.41
2023-09-08T15:09:16.247Z,47.01
2023-09-08T15:12:03.709Z,46.87
2023-09-08T15:14:50.859Z,46.86
2023-09-08T15:17:37.987Z,46.94
2023-09-08T15:20:25.645Z,46.91
2023-09-08T15:23:12.885Z,47.08
2023-09-08T15:26:00.213Z,47.30
2023-09-08T15:28:47.352Z,47.30
2023-09-08T15:31:34.740Z,47.21
2023-09-08T15:34:22.051Z,47.15
2023-09-08T15:37:09.225Z,47.27
2023-09-08T15:39:56.409Z,47.39
2023-09-08T15:42:44.527Z,46.73
2023-09-08T15:45:31.948Z,47.15
2023-09-08T15:48:19.178Z,46.84
2023-09-08T15:51:09.599Z,47.19
2023-09-08T15:53:56.729Z,47.16
2023-09-08T15:56:47.000Z,47.17
2023-09-08T15:59:34.558Z,47.17
2023-09-08T16:02:21.703Z,47.24
2023-09-08T16:05:09.253Z,47.27
2023-09-08T16:07:56.411Z,46.84
2023-09-08T16:10:44.497Z,47.32
2023-09-08T16:13:32.725Z,47.10
2023-09-08T16:16:19.942Z,47.16
2023-09-08T16:19:07.456Z,46.91
2023-09-08T16:21:54.621Z,46.99
2023-09-08T16:24:41.821Z,47.20
2023-09-08T16:27:29.670Z,46.88
2023-09-08T16:30:16.894Z,47.15
2023-09-08T16:33:04.127Z,46.75
2023-09-08T16:35:51.301Z,46.87
2023-09-08T16:38:38.464Z,47.05
2023-09-08T16:41:25.729Z,46.68
2023-09-08T16:44:12.974Z,47.19
2023-09-08T16:47:00.249Z,47.00
2023-09-08T16:49:48.065Z,46.67
2023-09-08T16:52:35.322Z,46.68
2023-09-08T16:55:22.508Z,46.61
2023-09-08T16:58:09.669Z,46.87
2023-09-08T17:00:56.819Z,47.11
2023-09-08T17:03:44.032Z,46.67
2023-09-08T17:06:31.383Z,46.67
2023-09-08T17:09:18.822Z,47.16
2023-09-08T17:12:08.288Z,47.05
2023-09-08T17:14:55.778Z,46.59
2023-09-08T17:17:42.927Z,46.92
2023-09-08T17:20:32.164Z,47.00
2023-09-08T17:23:19.588Z,46.73
2023-09-08T17:26:08.627Z,46.86
2023-09-08T17:28:55.885Z,46.77
2023-09-08T17:31:43.170Z,46.67
2023-09-08T17:34:30.574Z,46.68
2023-09-08T17:37:17.806Z,46.68
2023-09-08T17:40:06.242Z,46.71
2023-09-08T17:42:53.457Z,46.95
2023-09-08T17:45:40.901Z,46.53
2023-09-08T17:48:28.149Z,46.61
2023-09-08T17:51:15.349Z,47.08
2023-09-08T17:54:03.154Z,46.90
2023-09-08T17:56:50.285Z,46.91
2023-09-08T17:59:37.480Z,47.13
2023-09-08T18:02:26.031Z,47.17
2023-09-08T18:05:13.366Z,46.84
2023-09-08T18:08:00.561Z,46.97
2023-09-08T18:10:47.897Z,47.20
2023-09-08T18:13:35.420Z,47.01
2023-09-08T18:16:22.763Z,46.95
2023-09-08T18:19:10.128Z,46.89
2023-09-08T18:21:58.310Z,47.07
2023-09-08T18:24:45.553Z,46.88
2023-09-08T18:27:32.706Z,47.31
2023-09-08T18:30:19.923Z,47.01
2023-09-08T18:33:07.169Z,47.08
2023-09-08T18:35:54.399Z,47.14
2023-09-08T18:38:41.575Z,47.02
2023-09-08T18:41:28.700Z,46.92
2023-09-08T18:44:15.882Z,47.17
2023-09-08T18:47:04.136Z,46.93
2023-09-08T18:49:51.425Z,47.08
2023-09-08T18:52:38.721Z,47.25
2023-09-08T18:55:25.933Z,47.44
2023-09-08T18:58:13.146Z,47.01
2023-09-08T19:01:08.206Z,47.40
2023-09-08T19:03:55.568Z,47.43
2023-09-08T19:06:43.664Z,47.29
2023-09-08T19:09:30.902Z,47.19
2023-09-08T19:12:18.092Z,47.45
2023-09-08T19:15:06.065Z,47.30
2023-09-08T19:17:53.410Z,47.33
2023-09-08T19:20:40.599Z,47.19
2023-09-08T19:23:28.403Z,47.27
2023-09-08T19:26:15.505Z,47.04
2023-09-08T19:29:03.160Z,47.48
2023-09-08T19:31:50.645Z,47.19
2023-09-08T19:34:37.803Z,47.22
2023-09-08T19:37:24.999Z,47.40
2023-09-08T19:40:12.282Z,47.60
2023-09-08T19:42:59.474Z,47.40
2023-09-08T19:45:46.649Z,47.05
2023-09-08T19:48:35.923Z,47.14
2023-09-08T19:51:23.277Z,47.14
2023-09-08T19:54:10.401Z,47.15
2023-09-08T19:56:57.730Z,47.32
2023-09-08T19:59:44.922Z,47.17
2023-09-08T20:02:32.982Z,47.50
2023-09-08T20:05:20.210Z,47.61
2023-09-08T20:08:07.750Z,47.59
2023-09-08T20:10:55.594Z,47.85
2023-09-08T20:13:43.291Z,47.64
2023-09-08T20:16:30.493Z,47.22
2023-09-08T20:19:17.775Z,47.54
2023-09-08T20:22:04.983Z,47.33
2023-09-08T20:24:52.169Z,47.26
2023-09-08T20:27:39.554Z,47.54
2023-09-08T20:30:26.785Z,47.60
2023-09-08T20:33:13.983Z,47.74
2023-09-08T20:36:01.145Z,47.42
2023-09-08T20:38:48.411Z,47.73
2023-09-08T20:41:35.753Z,47.51
2023-09-08T20:44:23.163Z,47.71
2023-09-08T20:47:12.256Z,47.82
2023-09-08T20:49:59.483Z,47.87
2023-09-08T20:52:46.623Z,47.56
2023-09-08T20:55:33.764Z,47.29
2023-09-08T20:58:21.083Z,47.59
2023-09-08T21:01:09.041Z,47.63
2023-09-08T21:03:56.720Z,47.69
2023-09-08T21:06:43.933Z,47.58
2023-09-08T21:09:31.098Z,47.36
2023-09-08T21:12:18.231Z,47.68
2023-09-08T21:15:06.559Z,47.50
2023-09-08T21:17:53.793Z,47.57
2023-09-08T21:20:40.976Z,47.46
2023-09-08T21:23:29.193Z,47.59
2023-09-08T21:26:17.987Z,47.63
2023-09-08T21:29:05.352Z,47.65
2023-09-08T21:31:52.570Z,47.62
2023-09-08T21:34:39.799Z,47.64
2023-09-08T21:37:27.072Z,47.55
2023-09-08T21:40:14.544Z,47.61
2023-09-08T21:43:01.750Z,47.72
2023-09-08T21:45:52.173Z,47.38
2023-09-08T21:48:40.195Z,48.04
2023-09-08T21:51:27.789Z,47.87
2023-09-08T21:54:14.901Z,47.82
2023-09-08T21:57:02.150Z,48.34
2023-09-08T21:59:49.287Z,48.36
2023-09-08T22:02:36.492Z,48.03
2023-09-08T22:05:23.830Z,48.13
2023-09-08T22:08:11.013Z,48.25
2023-09-08T22:11:06.086Z,48.47
2023-09-08T22:13:53.367Z,48.14
2023-09-08T22:16:40.761Z,48.32
2023-09-08T22:19:27.940Z,48.13
2023-09-08T22:22:15.096Z,48.38
2023-09-08T22:25:02.388Z,48.67
2023-09-08T22:27:49.939Z,48.36
2023-09-08T22:30:37.141Z,48.56
2023-09-08T22:33:26.167Z,48.67
2023-09-08T22:36:13.478Z,48.59
2023-09-08T22:39:00.939Z,48.75
2023-09-08T22:41:48.436Z,48.89
2023-09-08T22:44:35.580Z,49.15
2023-09-08T22:47:22.710Z,48.86
2023-09-08T22:50:13.309Z,49.20
2023-09-08T22:53:01.090Z,49.14
2023-09-08T22:55:48.299Z,48.97
2023-09-08T22:58:42.731Z,49.26
2023-09-08T23:01:29.864Z,49.02
2023-09-08T23:04:16.969Z,48.77
2023-09-08T23:07:04.313Z,49.09
2023-09-08T23:09:52.758Z,49.07
2023-09-08T23:12:39.964Z,49.46
2023-09-08T23:15:29.658Z,49.22
2023-09-08T23:18:17.653Z,49.32
2023-09-08T23:21:05.075Z,49.24
2023-09-08T23:23:52.315Z,49.19
2023-09-08T23:26:40.732Z,49.21
2023-09-08T23:29:27.883Z,49.29
2023-09-08T23:32:16.082Z,49.16
2023-09-08T23:35:05.040Z,49.48
2023-09-08T23:37:52.392Z,49.37
2023-09-08T23:40:39.550Z,49.67
2023-09-08T23:43:27.679Z,49.70
2023-09-08T23:46:14.975Z,49.88
2023-09-08T23:49:02.236Z,49.37
2023-09-08T23:51:49.350Z,49.46
2023-09-08T23:54:36.412Z,49.63
2023-09-08T23:57:23.669Z,49.94
